sensor_id;sensor_type;location;lat;lon;timestamp;P1;durP1;ratioP1;P2;durP2;ratioP2
75195;SDS011;63773;42.282;22.782;2023-04-25T00:01:58;8.07;;;4.93;;
75195;SDS011;63773;42.282;22.782;2023-04-25T00:04:24;7.40;;;4.07;;
75195;SDS011;63773;42.282;22.782;2023-04-25T00:06:52;7.80;;;4.20;;
75195;SDS011;63773;42.282;22.782;2023-04-25T00:09:17;10.73;;;5.75;;
75195;SDS011;63773;42.282;22.782;2023-04-25T00:11:43;8.55;;;5.05;;
75195;SDS011;63773;42.282;22.782;2023-04-25T00:14:08;10.10;;;4.93;;
75195;SDS011;63773;42.282;22.782;2023-04-25T00:16:34;9.35;;;6.07;;
75195;SDS011;63773;42.282;22.782;2023-04-25T00:19:01;10.10;;;5.13;;
75195;SDS011;63773;42.282;22.782;2023-04-25T00:21:27;9.13;;;5.13;;
75195;SDS011;63773;42.282;22.782;2023-04-25T00:23:53;11.88;;;5.22;;
75195;SDS011;63773;42.282;22.782;2023-04-25T00:26:19;9.20;;;4.70;;
75195;SDS011;63773;42.282;22.782;2023-04-25T00:28:46;8.55;;;4.82;;
75195;SDS011;63773;42.282;22.782;2023-04-25T00:31:12;7.95;;;3.67;;
75195;SDS011;63773;42.282;22.782;2023-04-25T00:33:37;7.13;;;3.88;;
75195;SDS011;63773;42.282;22.782;2023-04-25T00:36:02;7.82;;;3.47;;
75195;SDS011;63773;42.282;22.782;2023-04-25T00:38:28;7.25;;;4.05;;
75195;SDS011;63773;42.282;22.782;2023-04-25T00:40:53;7.40;;;3.67;;
75195;SDS011;63773;42.282;22.782;2023-04-25T00:43:20;7.43;;;4.25;;
75195;SDS011;63773;42.282;22.782;2023-04-25T00:45:47;6.38;;;3.63;;
75195;SDS011;63773;42.282;22.782;2023-04-25T00:48:13;5.50;;;3.63;;
75195;SDS011;63773;42.282;22.782;2023-04-25T00:50:39;6.78;;;3.38;;
75195;SDS011;63773;42.282;22.782;2023-04-25T00:53:05;6.43;;;3.85;;
75195;SDS011;63773;42.282;22.782;2023-04-25T00:55:31;10.57;;;3.72;;
75195;SDS011;63773;42.282;22.782;2023-04-25T00:57:59;6.88;;;3.97;;
75195;SDS011;63773;42.282;22.782;2023-04-25T01:00:25;9.73;;;3.75;;
75195;SDS011;63773;42.282;22.782;2023-04-25T01:02:50;7.05;;;4.30;;
75195;SDS011;63773;42.282;22.782;2023-04-25T01:05:16;6.05;;;3.85;;
75195;SDS011;63773;42.282;22.782;2023-04-25T01:07:44;7.00;;;4.03;;
75195;SDS011;63773;42.282;22.782;2023-04-25T01:10:10;6.00;;;3.42;;
75195;SDS011;63773;42.282;22.782;2023-04-25T01:12:35;8.85;;;3.85;;
75195;SDS011;63773;42.282;22.782;2023-04-25T01:15:01;7.45;;;4.20;;
75195;SDS011;63773;42.282;22.782;2023-04-25T01:17:26;5.50;;;3.22;;
75195;SDS011;63773;42.282;22.782;2023-04-25T01:19:52;7.57;;;3.90;;
75195;SDS011;63773;42.282;22.782;2023-04-25T01:22:18;6.53;;;3.90;;
75195;SDS011;63773;42.282;22.782;2023-04-25T01:24:44;7.63;;;3.78;;
75195;SDS011;63773;42.282;22.782;2023-04-25T01:27:09;4.80;;;2.90;;
75195;SDS011;63773;42.282;22.782;2023-04-25T01:29:35;7.30;;;3.53;;
75195;SDS011;63773;42.282;22.782;2023-04-25T01:32:01;7.03;;;3.80;;
75195;SDS011;63773;42.282;22.782;2023-04-25T01:34:28;5.80;;;3.92;;
75195;SDS011;63773;42.282;22.782;2023-04-25T01:36:53;6.38;;;3.60;;
75195;SDS011;63773;42.282;22.782;2023-04-25T01:39:19;6.10;;;3.33;;
75195;SDS011;63773;42.282;22.782;2023-04-25T01:41:45;5.65;;;3.50;;
75195;SDS011;63773;42.282;22.782;2023-04-25T01:44:11;6.18;;;3.45;;
75195;SDS011;63773;42.282;22.782;2023-04-25T01:46:36;5.85;;;3.25;;
75195;SDS011;63773;42.282;22.782;2023-04-25T01:49:02;6.65;;;3.42;;
75195;SDS011;63773;42.282;22.782;2023-04-25T01:51:28;5.40;;;3.42;;
75195;SDS011;63773;42.282;22.782;2023-04-25T01:53:53;6.55;;;3.55;;
75195;SDS011;63773;42.282;22.782;2023-04-25T01:56:19;6.32;;;3.40;;
75195;SDS011;63773;42.282;22.782;2023-04-25T01:58:45;8.43;;;4.70;;
75195;SDS011;63773;42.282;22.782;2023-04-25T02:01:10;7.90;;;4.93;;
75195;SDS011;63773;42.282;22.782;2023-04-25T02:03:36;9.82;;;5.45;;
75195;SDS011;63773;42.282;22.782;2023-04-25T02:06:01;9.52;;;5.07;;
75195;SDS011;63773;42.282;22.782;2023-04-25T02:08:26;8.65;;;5.25;;
75195;SDS011;63773;42.282;22.782;2023-04-25T02:10:52;8.00;;;4.78;;
75195;SDS011;63773;42.282;22.782;2023-04-25T02:13:17;7.63;;;4.22;;
75195;SDS011;63773;42.282;22.782;2023-04-25T02:15:43;5.72;;;2.47;;
75195;SDS011;63773;42.282;22.782;2023-04-25T02:18:08;7.15;;;2.45;;
75195;SDS011;63773;42.282;22.782;2023-04-25T02:20:35;4.60;;;2.30;;
75195;SDS011;63773;42.282;22.782;2023-04-25T02:23:01;4.90;;;2.30;;
75195;SDS011;63773;42.282;22.782;2023-04-25T02:25:27;5.15;;;2.20;;
75195;SDS011;63773;42.282;22.782;2023-04-25T02:27:52;3.83;;;2.10;;
75195;SDS011;63773;42.282;22.782;2023-04-25T02:30:18;3.88;;;2.10;;
75195;SDS011;63773;42.282;22.782;2023-04-25T02:32:44;3.75;;;2.03;;
75195;SDS011;63773;42.282;22.782;2023-04-25T02:35:10;3.63;;;1.75;;
75195;SDS011;63773;42.282;22.782;2023-04-25T02:37:36;3.78;;;2.08;;
75195;SDS011;63773;42.282;22.782;2023-04-25T02:40:02;5.18;;;2.40;;
75195;SDS011;63773;42.282;22.782;2023-04-25T02:42:29;4.55;;;2.63;;
75195;SDS011;63773;42.282;22.782;2023-04-25T02:44:55;5.57;;;2.92;;
75195;SDS011;63773;42.282;22.782;2023-04-25T02:47:20;9.07;;;4.47;;
75195;SDS011;63773;42.282;22.782;2023-04-25T02:49:46;7.18;;;4.95;;
75195;SDS011;63773;42.282;22.782;2023-04-25T02:52:11;7.53;;;4.30;;
75195;SDS011;63773;42.282;22.782;2023-04-25T02:54:37;8.15;;;5.30;;
75195;SDS011;63773;42.282;22.782;2023-04-25T02:57:04;8.98;;;5.55;;
75195;SDS011;63773;42.282;22.782;2023-04-25T02:59:29;9.05;;;5.32;;
75195;SDS011;63773;42.282;22.782;2023-04-25T03:01:55;9.63;;;5.30;;
75195;SDS011;63773;42.282;22.782;2023-04-25T03:04:20;8.30;;;5.63;;
75195;SDS011;63773;42.282;22.782;2023-04-25T03:06:46;10.30;;;5.43;;
75195;SDS011;63773;42.282;22.782;2023-04-25T03:09:11;9.32;;;5.85;;
75195;SDS011;63773;42.282;22.782;2023-04-25T03:11:38;8.43;;;5.25;;
75195;SDS011;63773;42.282;22.782;2023-04-25T03:14:04;9.55;;;5.55;;
75195;SDS011;63773;42.282;22.782;2023-04-25T03:16:29;8.55;;;5.55;;
75195;SDS011;63773;42.282;22.782;2023-04-25T03:18:55;8.48;;;4.63;;
75195;SDS011;63773;42.282;22.782;2023-04-25T03:21:21;7.45;;;4.38;;
75195;SDS011;63773;42.282;22.782;2023-04-25T03:23:47;8.50;;;4.20;;
75195;SDS011;63773;42.282;22.782;2023-04-25T03:26:12;6.63;;;4.32;;
75195;SDS011;63773;42.282;22.782;2023-04-25T03:28:37;7.18;;;3.85;;
75195;SDS011;63773;42.282;22.782;2023-04-25T03:31:04;7.13;;;3.58;;
75195;SDS011;63773;42.282;22.782;2023-04-25T03:33:30;5.70;;;3.10;;
75195;SDS011;63773;42.282;22.782;2023-04-25T03:35:55;5.75;;;2.92;;
75195;SDS011;63773;42.282;22.782;2023-04-25T03:38:20;4.95;;;2.85;;
75195;SDS011;63773;42.282;22.782;2023-04-25T03:40:46;6.22;;;3.45;;
75195;SDS011;63773;42.282;22.782;2023-04-25T03:43:11;7.00;;;2.78;;
75195;SDS011;63773;42.282;22.782;2023-04-25T03:45:37;5.60;;;3.00;;
75195;SDS011;63773;42.282;22.782;2023-04-25T03:48:02;3.88;;;2.53;;
75195;SDS011;63773;42.282;22.782;2023-04-25T03:50:28;5.78;;;3.22;;
75195;SDS011;63773;42.282;22.782;2023-04-25T03:52:53;7.70;;;3.70;;
75195;SDS011;63773;42.282;22.782;2023-04-25T03:55:19;16.70;;;6.63;;
75195;SDS011;63773;42.282;22.782;2023-04-25T03:57:45;50.80;;;17.73;;
75195;SDS011;63773;42.282;22.782;2023-04-25T04:00:10;53.05;;;19.20;;
75195;SDS011;63773;42.282;22.782;2023-04-25T04:02:36;28.50;;;13.13;;
75195;SDS011;63773;42.282;22.782;2023-04-25T04:05:03;9.98;;;5.72;;
75195;SDS011;63773;42.282;22.782;2023-04-25T04:07:29;11.50;;;6.00;;
75195;SDS011;63773;42.282;22.782;2023-04-25T04:09:54;9.75;;;5.20;;
75195;SDS011;63773;42.282;22.782;2023-04-25T04:12:19;6.88;;;4.22;;
75195;SDS011;63773;42.282;22.782;2023-04-25T04:14:45;8.98;;;4.40;;
75195;SDS011;63773;42.282;22.782;2023-04-25T04:17:10;7.50;;;4.20;;
75195;SDS011;63773;42.282;22.782;2023-04-25T04:19:36;8.25;;;4.32;;
75195;SDS011;63773;42.282;22.782;2023-04-25T04:22:01;7.78;;;4.70;;
75195;SDS011;63773;42.282;22.782;2023-04-25T04:24:26;6.28;;;4.20;;
75195;SDS011;63773;42.282;22.782;2023-04-25T04:26:52;7.75;;;4.15;;
75195;SDS011;63773;42.282;22.782;2023-04-25T04:29:17;6.43;;;3.13;;
75195;SDS011;63773;42.282;22.782;2023-04-25T04:31:49;5.15;;;2.85;;
75195;SDS011;63773;42.282;22.782;2023-04-25T04:34:15;5.05;;;2.30;;
75195;SDS011;63773;42.282;22.782;2023-04-25T04:36:44;4.32;;;2.45;;
75195;SDS011;63773;42.282;22.782;2023-04-25T04:39:11;6.00;;;3.53;;
75195;SDS011;63773;42.282;22.782;2023-04-25T04:41:37;5.43;;;2.97;;
75195;SDS011;63773;42.282;22.782;2023-04-25T04:44:02;6.05;;;3.13;;
75195;SDS011;63773;42.282;22.782;2023-04-25T04:46:28;10.68;;;5.50;;
75195;SDS011;63773;42.282;22.782;2023-04-25T04:48:53;7.90;;;4.20;;
75195;SDS011;63773;42.282;22.782;2023-04-25T04:51:19;5.72;;;2.78;;
75195;SDS011;63773;42.282;22.782;2023-04-25T04:53:45;5.40;;;2.72;;
75195;SDS011;63773;42.282;22.782;2023-04-25T04:56:11;6.40;;;3.97;;
75195;SDS011;63773;42.282;22.782;2023-04-25T04:58:36;8.57;;;4.68;;
75195;SDS011;63773;42.282;22.782;2023-04-25T05:01:02;9.65;;;5.57;;
75195;SDS011;63773;42.282;22.782;2023-04-25T05:03:27;11.80;;;6.25;;
75195;SDS011;63773;42.282;22.782;2023-04-25T05:05:53;9.30;;;5.43;;
75195;SDS011;63773;42.282;22.782;2023-04-25T05:08:18;6.00;;;3.42;;
75195;SDS011;63773;42.282;22.782;2023-04-25T05:10:44;3.63;;;1.90;;
75195;SDS011;63773;42.282;22.782;2023-04-25T05:13:09;5.00;;;2.85;;
75195;SDS011;63773;42.282;22.782;2023-04-25T05:15:35;4.10;;;2.78;;
75195;SDS011;63773;42.282;22.782;2023-04-25T05:18:00;5.47;;;3.10;;
75195;SDS011;63773;42.282;22.782;2023-04-25T05:20:27;4.70;;;3.60;;
75195;SDS011;63773;42.282;22.782;2023-04-25T05:22:52;5.28;;;3.10;;
75195;SDS011;63773;42.282;22.782;2023-04-25T05:25:18;5.82;;;2.85;;
75195;SDS011;63773;42.282;22.782;2023-04-25T05:27:43;7.78;;;4.30;;
75195;SDS011;63773;42.282;22.782;2023-04-25T05:30:08;7.72;;;6.00;;
75195;SDS011;63773;42.282;22.782;2023-04-25T05:32:34;8.55;;;5.57;;
75195;SDS011;63773;42.282;22.782;2023-04-25T05:35:00;11.18;;;6.07;;
75195;SDS011;63773;42.282;22.782;2023-04-25T05:37:26;10.07;;;5.65;;
75195;SDS011;63773;42.282;22.782;2023-04-25T05:39:51;8.45;;;4.72;;
75195;SDS011;63773;42.282;22.782;2023-04-25T05:42:17;9.80;;;5.20;;
75195;SDS011;63773;42.282;22.782;2023-04-25T05:44:42;8.65;;;4.25;;
75195;SDS011;63773;42.282;22.782;2023-04-25T05:47:07;7.20;;;4.43;;
75195;SDS011;63773;42.282;22.782;2023-04-25T05:49:33;5.72;;;3.70;;
75195;SDS011;63773;42.282;22.782;2023-04-25T05:51:59;6.75;;;3.28;;
75195;SDS011;63773;42.282;22.782;2023-04-25T05:54:25;5.97;;;4.00;;
75195;SDS011;63773;42.282;22.782;2023-04-25T05:56:50;8.02;;;3.95;;
75195;SDS011;63773;42.282;22.782;2023-04-25T05:59:16;7.63;;;3.75;;
75195;SDS011;63773;42.282;22.782;2023-04-25T06:01:41;5.80;;;3.55;;
75195;SDS011;63773;42.282;22.782;2023-04-25T06:04:06;6.97;;;3.65;;
75195;SDS011;63773;42.282;22.782;2023-04-25T06:06:32;5.43;;;3.38;;
75195;SDS011;63773;42.282;22.782;2023-04-25T06:08:57;6.05;;;3.60;;
75195;SDS011;63773;42.282;22.782;2023-04-25T06:11:23;5.93;;;4.10;;
75195;SDS011;63773;42.282;22.782;2023-04-25T06:13:48;4.90;;;2.97;;
75195;SDS011;63773;42.282;22.782;2023-04-25T06:16:14;8.57;;;4.05;;
75195;SDS011;63773;42.282;22.782;2023-04-25T06:18:39;5.78;;;3.83;;
75195;SDS011;63773;42.282;22.782;2023-04-25T06:21:05;7.50;;;4.13;;
75195;SDS011;63773;42.282;22.782;2023-04-25T06:23:30;8.93;;;4.60;;
75195;SDS011;63773;42.282;22.782;2023-04-25T06:25:55;4.03;;;3.28;;
75195;SDS011;63773;42.282;22.782;2023-04-25T06:28:21;5.60;;;3.80;;
75195;SDS011;63773;42.282;22.782;2023-04-25T06:30:47;6.05;;;3.75;;
75195;SDS011;63773;42.282;22.782;2023-04-25T06:33:13;6.45;;;3.58;;
75195;SDS011;63773;42.282;22.782;2023-04-25T06:35:38;7.95;;;3.63;;
75195;SDS011;63773;42.282;22.782;2023-04-25T06:38:04;5.32;;;3.10;;
75195;SDS011;63773;42.282;22.782;2023-04-25T06:40:29;5.05;;;3.65;;
75195;SDS011;63773;42.282;22.782;2023-04-25T06:42:55;4.25;;;2.67;;
75195;SDS011;63773;42.282;22.782;2023-04-25T06:45:20;4.38;;;3.35;;
75195;SDS011;63773;42.282;22.782;2023-04-25T06:47:46;4.90;;;2.65;;
75195;SDS011;63773;42.282;22.782;2023-04-25T06:50:11;5.40;;;2.78;;
75195;SDS011;63773;42.282;22.782;2023-04-25T06:52:36;4.75;;;2.63;;
75195;SDS011;63773;42.282;22.782;2023-04-25T06:55:02;6.03;;;2.80;;
75195;SDS011;63773;42.282;22.782;2023-04-25T06:57:28;3.72;;;2.15;;
75195;SDS011;63773;42.282;22.782;2023-04-25T06:59:54;2.63;;;1.77;;
75195;SDS011;63773;42.282;22.782;2023-04-25T07:02:19;3.63;;;2.22;;
75195;SDS011;63773;42.282;22.782;2023-04-25T07:04:46;3.67;;;2.05;;
75195;SDS011;63773;42.282;22.782;2023-04-25T07:07:12;4.22;;;2.72;;
75195;SDS011;63773;42.282;22.782;2023-04-25T07:09:37;5.10;;;2.58;;
75195;SDS011;63773;42.282;22.782;2023-04-25T07:12:02;4.47;;;2.40;;
75195;SDS011;63773;42.282;22.782;2023-04-25T07:14:28;4.63;;;2.90;;
75195;SDS011;63773;42.282;22.782;2023-04-25T07:16:53;3.88;;;2.70;;
75195;SDS011;63773;42.282;22.782;2023-04-25T07:19:21;3.95;;;2.72;;
75195;SDS011;63773;42.282;22.782;2023-04-25T07:21:46;4.13;;;3.00;;
75195;SDS011;63773;42.282;22.782;2023-04-25T07:24:12;7.10;;;2.75;;
75195;SDS011;63773;42.282;22.782;2023-04-25T07:26:37;4.15;;;2.45;;
75195;SDS011;63773;42.282;22.782;2023-04-25T07:29:03;3.00;;;1.98;;
75195;SDS011;63773;42.282;22.782;2023-04-25T07:31:28;3.38;;;2.13;;
75195;SDS011;63773;42.282;22.782;2023-04-25T07:33:54;4.03;;;1.95;;
75195;SDS011;63773;42.282;22.782;2023-04-25T07:36:19;2.70;;;1.77;;
75195;SDS011;63773;42.282;22.782;2023-04-25T07:38:46;3.33;;;1.85;;
75195;SDS011;63773;42.282;22.782;2023-04-25T07:41:11;3.63;;;2.22;;
75195;SDS011;63773;42.282;22.782;2023-04-25T07:43:36;4.22;;;2.15;;
75195;SDS011;63773;42.282;22.782;2023-04-25T07:46:02;3.97;;;2.17;;
75195;SDS011;63773;42.282;22.782;2023-04-25T07:48:27;3.60;;;2.13;;
75195;SDS011;63773;42.282;22.782;2023-04-25T07:50:53;3.67;;;2.00;;
75195;SDS011;63773;42.282;22.782;2023-04-25T07:53:19;3.53;;;1.73;;
75195;SDS011;63773;42.282;22.782;2023-04-25T07:55:44;3.03;;;1.80;;
75195;SDS011;63773;42.282;22.782;2023-04-25T07:58:10;3.63;;;1.38;;
75195;SDS011;63773;42.282;22.782;2023-04-25T08:00:36;4.78;;;1.88;;
75195;SDS011;63773;42.282;22.782;2023-04-25T08:03:02;3.97;;;1.58;;
75195;SDS011;63773;42.282;22.782;2023-04-25T08:05:27;2.85;;;1.38;;
75195;SDS011;63773;42.282;22.782;2023-04-25T08:07:53;3.03;;;1.42;;
75195;SDS011;63773;42.282;22.782;2023-04-25T08:10:19;3.38;;;1.42;;
75195;SDS011;63773;42.282;22.782;2023-04-25T08:12:44;2.75;;;1.40;;
75195;SDS011;63773;42.282;22.782;2023-04-25T08:15:10;1.65;;;1.02;;
75195;SDS011;63773;42.282;22.782;2023-04-25T08:17:35;2.70;;;1.35;;
75195;SDS011;63773;42.282;22.782;2023-04-25T08:20:01;2.88;;;1.30;;
75195;SDS011;63773;42.282;22.782;2023-04-25T08:24:55;3.28;;;1.20;;
75195;SDS011;63773;42.282;22.782;2023-04-25T08:27:20;3.13;;;1.02;;
75195;SDS011;63773;42.282;22.782;2023-04-25T08:29:46;2.85;;;0.98;;
75195;SDS011;63773;42.282;22.782;2023-04-25T08:32:11;3.75;;;1.42;;
75195;SDS011;63773;42.282;22.782;2023-04-25T08:34:36;2.25;;;1.25;;
75195;SDS011;63773;42.282;22.782;2023-04-25T08:37:04;2.47;;;1.25;;
75195;SDS011;63773;42.282;22.782;2023-04-25T08:39:30;2.42;;;0.90;;
75195;SDS011;63773;42.282;22.782;2023-04-25T08:41:56;3.17;;;1.25;;
75195;SDS011;63773;42.282;22.782;2023-04-25T08:44:21;2.17;;;0.73;;
75195;SDS011;63773;42.282;22.782;2023-04-25T08:46:47;1.92;;;0.90;;
75195;SDS011;63773;42.282;22.782;2023-04-25T08:49:14;2.95;;;0.73;;
75195;SDS011;63773;42.282;22.782;2023-04-25T08:51:45;3.13;;;1.63;;
75195;SDS011;63773;42.282;22.782;2023-04-25T08:54:12;1.65;;;0.75;;
75195;SDS011;63773;42.282;22.782;2023-04-25T08:56:48;2.33;;;0.77;;
75195;SDS011;63773;42.282;22.782;2023-04-25T08:59:15;4.35;;;0.80;;
75195;SDS011;63773;42.282;22.782;2023-04-25T09:01:42;1.48;;;0.52;;
75195;SDS011;63773;42.282;22.782;2023-04-25T09:04:08;2.17;;;1.05;;
75195;SDS011;63773;42.282;22.782;2023-04-25T09:06:33;2.45;;;0.80;;
75195;SDS011;63773;42.282;22.782;2023-04-25T09:09:03;2.67;;;0.85;;
75195;SDS011;63773;42.282;22.782;2023-04-25T09:11:30;2.05;;;0.75;;
75195;SDS011;63773;42.282;22.782;2023-04-25T09:14:15;3.88;;;1.88;;
75195;SDS011;63773;42.282;22.782;2023-04-25T09:19:29;5.00;;;2.25;;
75195;SDS011;63773;42.282;22.782;2023-04-25T09:22:04;2.22;;;0.63;;
75195;SDS011;63773;42.282;22.782;2023-04-25T09:24:43;2.42;;;0.43;;
75195;SDS011;63773;42.282;22.782;2023-04-25T09:29:40;1.70;;;0.50;;
75195;SDS011;63773;42.282;22.782;2023-04-25T09:34:42;1.33;;;0.52;;
75195;SDS011;63773;42.282;22.782;2023-04-25T09:37:10;1.27;;;0.55;;
75195;SDS011;63773;42.282;22.782;2023-04-25T09:42:57;1.38;;;0.40;;
75195;SDS011;63773;42.282;22.782;2023-04-25T09:45:24;1.48;;;0.60;;
75195;SDS011;63773;42.282;22.782;2023-04-25T09:47:49;1.55;;;0.52;;
75195;SDS011;63773;42.282;22.782;2023-04-25T09:50:16;1.55;;;0.50;;
75195;SDS011;63773;42.282;22.782;2023-04-25T09:52:44;3.60;;;1.05;;
75195;SDS011;63773;42.282;22.782;2023-04-25T09:55:09;5.72;;;1.80;;
75195;SDS011;63773;42.282;22.782;2023-04-25T09:57:35;2.25;;;0.60;;
75195;SDS011;63773;42.282;22.782;2023-04-25T10:00:04;1.00;;;0.43;;
75195;SDS011;63773;42.282;22.782;2023-04-25T10:02:34;1.40;;;0.52;;
75195;SDS011;63773;42.282;22.782;2023-04-25T10:05:01;2.22;;;0.65;;
75195;SDS011;63773;42.282;22.782;2023-04-25T10:07:30;0.93;;;0.50;;
75195;SDS011;63773;42.282;22.782;2023-04-25T10:09:58;0.82;;;0.50;;
75195;SDS011;63773;42.282;22.782;2023-04-25T10:12:28;1.63;;;0.60;;
75195;SDS011;63773;42.282;22.782;2023-04-25T10:14:56;0.93;;;0.38;;
75195;SDS011;63773;42.282;22.782;2023-04-25T10:17:23;2.00;;;1.20;;
75195;SDS011;63773;42.282;22.782;2023-04-25T10:19:48;1.13;;;0.55;;
75195;SDS011;63773;42.282;22.782;2023-04-25T10:22:16;2.00;;;0.47;;
75195;SDS011;63773;42.282;22.782;2023-04-25T10:24:46;3.03;;;0.50;;
75195;SDS011;63773;42.282;22.782;2023-04-25T10:27:11;1.90;;;0.50;;
75195;SDS011;63773;42.282;22.782;2023-04-25T10:29:38;1.30;;;0.50;;
75195;SDS011;63773;42.282;22.782;2023-04-25T10:32:03;1.42;;;0.50;;
75195;SDS011;63773;42.282;22.782;2023-04-25T10:34:42;1.85;;;0.70;;
75195;SDS011;63773;42.282;22.782;2023-04-25T10:37:11;3.75;;;0.60;;
75195;SDS011;63773;42.282;22.782;2023-04-25T10:39:38;1.63;;;0.70;;
75195;SDS011;63773;42.282;22.782;2023-04-25T10:42:05;2.10;;;0.77;;
75195;SDS011;63773;42.282;22.782;2023-04-25T10:44:32;2.03;;;0.50;;
75195;SDS011;63773;42.282;22.782;2023-04-25T10:47:00;1.17;;;0.68;;
75195;SDS011;63773;42.282;22.782;2023-04-25T10:52:12;2.50;;;0.82;;
75195;SDS011;63773;42.282;22.782;2023-04-25T10:54:42;3.30;;;0.73;;
75195;SDS011;63773;42.282;22.782;2023-04-25T11:00:15;3.08;;;0.75;;
75195;SDS011;63773;42.282;22.782;2023-04-25T11:05:23;1.98;;;0.73;;
75195;SDS011;63773;42.282;22.782;2023-04-25T11:07:52;2.70;;;0.57;;
75195;SDS011;63773;42.282;22.782;2023-04-25T11:10:24;1.52;;;0.38;;
75195;SDS011;63773;42.282;22.782;2023-04-25T11:12:57;2.35;;;0.70;;
75195;SDS011;63773;42.282;22.782;2023-04-25T11:15:23;1.52;;;0.45;;
75195;SDS011;63773;42.282;22.782;2023-04-25T11:17:53;2.45;;;0.50;;
75195;SDS011;63773;42.282;22.782;2023-04-25T11:20:20;2.58;;;0.50;;
75195;SDS011;63773;42.282;22.782;2023-04-25T11:22:46;0.95;;;0.55;;
75195;SDS011;63773;42.282;22.782;2023-04-25T11:25:13;2.72;;;0.60;;
75195;SDS011;63773;42.282;22.782;2023-04-25T11:30:15;2.22;;;0.50;;
75195;SDS011;63773;42.282;22.782;2023-04-25T11:32:41;1.13;;;0.40;;
75195;SDS011;63773;42.282;22.782;2023-04-25T11:35:08;1.20;;;0.43;;
75195;SDS011;63773;42.282;22.782;2023-04-25T11:37:35;1.40;;;0.52;;
75195;SDS011;63773;42.282;22.782;2023-04-25T11:40:02;0.80;;;0.50;;
75195;SDS011;63773;42.282;22.782;2023-04-25T11:42:28;1.20;;;0.43;;
75195;SDS011;63773;42.282;22.782;2023-04-25T11:44:55;2.78;;;0.95;;
75195;SDS011;63773;42.282;22.782;2023-04-25T11:47:20;4.22;;;1.10;;
75195;SDS011;63773;42.282;22.782;2023-04-25T11:49:53;2.60;;;0.73;;
75195;SDS011;63773;42.282;22.782;2023-04-25T11:52:18;3.95;;;0.90;;
75195;SDS011;63773;42.282;22.782;2023-04-25T11:54:44;3.40;;;1.02;;
75195;SDS011;63773;42.282;22.782;2023-04-25T11:57:09;2.95;;;1.20;;
75195;SDS011;63773;42.282;22.782;2023-04-25T11:59:36;3.65;;;1.67;;
75195;SDS011;63773;42.282;22.782;2023-04-25T12:02:02;2.90;;;1.10;;
75195;SDS011;63773;42.282;22.782;2023-04-25T12:04:29;2.90;;;1.30;;
75195;SDS011;63773;42.282;22.782;2023-04-25T12:06:56;1.65;;;0.80;;
75195;SDS011;63773;42.282;22.782;2023-04-25T12:09:27;1.63;;;0.82;;
75195;SDS011;63773;42.282;22.782;2023-04-25T12:11:55;3.40;;;1.20;;
75195;SDS011;63773;42.282;22.782;2023-04-25T12:14:33;1.60;;;0.75;;
75195;SDS011;63773;42.282;22.782;2023-04-25T12:17:00;2.67;;;0.50;;
75195;SDS011;63773;42.282;22.782;2023-04-25T12:19:34;2.88;;;0.77;;
75195;SDS011;63773;42.282;22.782;2023-04-25T12:22:03;3.90;;;1.90;;
75195;SDS011;63773;42.282;22.782;2023-04-25T12:24:45;1.35;;;0.80;;
75195;SDS011;63773;42.282;22.782;2023-04-25T12:27:10;1.27;;;0.52;;
75195;SDS011;63773;42.282;22.782;2023-04-25T12:29:49;2.60;;;0.98;;
75195;SDS011;63773;42.282;22.782;2023-04-25T12:32:16;2.92;;;1.05;;
75195;SDS011;63773;42.282;22.782;2023-04-25T12:34:42;2.05;;;0.68;;
75195;SDS011;63773;42.282;22.782;2023-04-25T12:37:08;2.28;;;0.85;;
75195;SDS011;63773;42.282;22.782;2023-04-25T12:39:34;3.17;;;0.90;;
75195;SDS011;63773;42.282;22.782;2023-04-25T12:42:00;3.00;;;1.42;;
75195;SDS011;63773;42.282;22.782;2023-04-25T12:44:26;2.15;;;0.60;;
75195;SDS011;63773;42.282;22.782;2023-04-25T12:46:51;1.88;;;0.90;;
75195;SDS011;63773;42.282;22.782;2023-04-25T12:49:17;1.90;;;0.55;;
75195;SDS011;63773;42.282;22.782;2023-04-25T12:51:43;1.60;;;0.43;;
75195;SDS011;63773;42.282;22.782;2023-04-25T12:54:08;1.50;;;0.60;;
75195;SDS011;63773;42.282;22.782;2023-04-25T12:56:35;2.35;;;0.90;;
75195;SDS011;63773;42.282;22.782;2023-04-25T12:59:01;2.10;;;1.27;;
75195;SDS011;63773;42.282;22.782;2023-04-25T13:01:28;2.53;;;1.00;;
75195;SDS011;63773;42.282;22.782;2023-04-25T13:03:54;2.38;;;0.65;;
75195;SDS011;63773;42.282;22.782;2023-04-25T13:06:20;2.58;;;0.73;;
75195;SDS011;63773;42.282;22.782;2023-04-25T13:08:46;1.83;;;0.70;;
75195;SDS011;63773;42.282;22.782;2023-04-25T13:11:12;2.65;;;0.80;;
75195;SDS011;63773;42.282;22.782;2023-04-25T13:13:39;2.13;;;0.85;;
75195;SDS011;63773;42.282;22.782;2023-04-25T13:16:05;2.38;;;1.05;;
75195;SDS011;63773;42.282;22.782;2023-04-25T13:18:32;7.40;;;2.20;;
75195;SDS011;63773;42.282;22.782;2023-04-25T13:20:57;2.47;;;1.17;;
75195;SDS011;63773;42.282;22.782;2023-04-25T13:23:24;2.47;;;1.13;;
75195;SDS011;63773;42.282;22.782;2023-04-25T13:25:51;2.50;;;0.93;;
75195;SDS011;63773;42.282;22.782;2023-04-25T13:28:17;2.13;;;0.85;;
75195;SDS011;63773;42.282;22.782;2023-04-25T13:30:42;1.35;;;0.70;;
75195;SDS011;63773;42.282;22.782;2023-04-25T13:33:08;1.85;;;0.52;;
75195;SDS011;63773;42.282;22.782;2023-04-25T13:35:36;1.98;;;0.80;;
75195;SDS011;63773;42.282;22.782;2023-04-25T13:38:02;2.30;;;0.88;;
75195;SDS011;63773;42.282;22.782;2023-04-25T13:40:28;3.38;;;1.25;;
75195;SDS011;63773;42.282;22.782;2023-04-25T13:42:54;2.65;;;1.30;;
75195;SDS011;63773;42.282;22.782;2023-04-25T13:45:20;4.10;;;1.90;;
75195;SDS011;63773;42.282;22.782;2023-04-25T13:47:46;3.83;;;1.48;;
75195;SDS011;63773;42.282;22.782;2023-04-25T13:50:11;3.05;;;1.10;;
75195;SDS011;63773;42.282;22.782;2023-04-25T13:52:38;1.85;;;0.80;;
75195;SDS011;63773;42.282;22.782;2023-04-25T13:55:04;2.03;;;0.88;;
75195;SDS011;63773;42.282;22.782;2023-04-25T13:57:31;1.30;;;0.77;;
75195;SDS011;63773;42.282;22.782;2023-04-25T13:59:57;1.17;;;0.40;;
75195;SDS011;63773;42.282;22.782;2023-04-25T14:02:22;1.70;;;0.73;;
75195;SDS011;63773;42.282;22.782;2023-04-25T14:04:48;2.35;;;0.50;;
75195;SDS011;63773;42.282;22.782;2023-04-25T14:07:14;1.35;;;0.65;;
75195;SDS011;63773;42.282;22.782;2023-04-25T14:09:42;2.58;;;0.88;;
75195;SDS011;63773;42.282;22.782;2023-04-25T14:12:08;2.10;;;0.60;;
75195;SDS011;63773;42.282;22.782;2023-04-25T14:14:34;2.28;;;0.50;;
75195;SDS011;63773;42.282;22.782;2023-04-25T14:16:59;1.10;;;0.47;;
75195;SDS011;63773;42.282;22.782;2023-04-25T14:19:25;1.23;;;0.50;;
75195;SDS011;63773;42.282;22.782;2023-04-25T14:21:50;1.88;;;0.52;;
75195;SDS011;63773;42.282;22.782;2023-04-25T14:24:15;1.80;;;0.68;;
75195;SDS011;63773;42.282;22.782;2023-04-25T14:26:41;2.35;;;0.80;;
75195;SDS011;63773;42.282;22.782;2023-04-25T14:29:07;2.83;;;0.68;;
75195;SDS011;63773;42.282;22.782;2023-04-25T14:31:33;3.45;;;0.47;;
75195;SDS011;63773;42.282;22.782;2023-04-25T14:34:00;1.40;;;0.57;;
75195;SDS011;63773;42.282;22.782;2023-04-25T14:36:30;1.75;;;0.75;;
75195;SDS011;63773;42.282;22.782;2023-04-25T14:38:56;2.35;;;0.90;;
75195;SDS011;63773;42.282;22.782;2023-04-25T14:41:22;6.75;;;3.00;;
75195;SDS011;63773;42.282;22.782;2023-04-25T14:43:48;2.97;;;0.93;;
75195;SDS011;63773;42.282;22.782;2023-04-25T14:46:13;3.33;;;1.60;;
75195;SDS011;63773;42.282;22.782;2023-04-25T14:48:39;7.45;;;3.13;;
75195;SDS011;63773;42.282;22.782;2023-04-25T14:51:04;6.25;;;2.92;;
75195;SDS011;63773;42.282;22.782;2023-04-25T14:53:30;5.50;;;2.75;;